FW4099 Weather Reports


Display with metric or nautical units.
time (UTC)temp
F
wind
direction
speed
MPH
gust
MPH
rain 1hr
in
rain 24hr
in
rain mn
in
humidity
%
barometer
mb
20260510131544 46 148 0.0 0.0 0.00 0.01 0.01 92 1030.5
20260510131532 0 0.0 0.0 0.00 0.00 0.00 1030.9
20260510130044 46 148 0.0 1.0 0.00 0.01 0.01 92 1030.5
20260510130030 0 0.0 0.0 0.00 0.00 0.00 1030.9
20260510124544 46 164 0.0 0.0 0.00 0.01 0.01 91 1030.5
20260510124532 0 0.0 0.0 0.00 0.00 0.00 1030.9
20260510123043 47 161 0.0 0.0 0.00 0.01 0.01 91 1030.5
20260510123032 0 0.0 0.0 0.00 0.00 0.00 1031.0
20260510121543 47 168 0.0 0.0 0.00 0.01 0.01 91 1030.4
20260510121531 0 0.0 0.0 0.00 0.00 0.00 1030.9
20260510120042 49 187 0.0 1.0 0.00 0.01 0.01 91 1030.5
20260510120032 0 0.0 0.0 0.00 0.00 0.00 1031.0
20260510114543 49 184 1.0 2.0 0.00 0.01 0.01 91 1030.4
20260510114534 0 0.0 0.0 0.00 0.00 0.00 1030.9
20260510113042 50 194 2.0 3.0 0.00 0.01 0.01 91 1030.3
20260510113038 0 0.0 0.0 0.00 0.00 0.00 1030.8
20260510111601 50 147 0.0 2.0 0.00 0.01 0.01 90 1030.3
20260510111531 0 0.0 0.0 0.00 0.00 0.00 1030.9
20260510110040 51 147 0.0 0.0 0.00 0.01 0.01 90 1030.2
20260510110029 0 0.0 0.0 0.00 0.00 0.00 1030.9
20260510104539 51 144 0.0 0.0 0.00 0.01 0.01 91 1030.2
20260510104532 0 0.0 0.0 0.00 0.00 0.00 1030.8
20260510103038 51 156 0.0 2.0 0.00 0.01 0.01 90 1030.1
20260510103028 0 0.0 0.0 0.00 0.00 0.00 1030.7
20260510101538 51 198 2.0 5.0 0.00 0.01 0.01 89 1030.2
20260510101530 0 0.0 0.0 0.00 0.00 0.00 1030.7
20260510100037 51 246 0.0 2.0 0.00 0.01 0.01 89 1030.1
20260510100032 0 0.0 0.0 0.00 0.00 0.00 1030.7
20260510094536 51 244 0.0 1.0 0.00 0.01 0.01 89 1030.0
20260510094532 0 0.0 0.0 0.00 0.00 0.00 1030.4
20260510093056 51 240 1.0 2.0 0.00 0.01 0.01 88 1029.8
20260510093030 0 0.0 0.0 0.00 0.00 0.00 1030.3
20260510091537 51 288 0.0 0.0 0.00 0.01 0.01 86 1029.6
20260510091533 0 0.0 0.0 0.00 0.00 0.00 1030.2
20260510090050 52 288 0.0 0.0 0.00 0.01 0.01 85 1029.3
20260510090029 0 0.0 0.0 0.00 0.00 0.00 1029.8
20260510084535 53 222 0.0 0.0 0.00 0.01 0.01 81 1029.2
20260510084530 0 0.0 0.0 0.00 0.00 0.00 1029.8
20260510083034 56 222 0.0 0.0 0.00 0.01 0.01 79 1029.1
20260510083030 0 0.0 0.0 0.00 0.00 0.00 1029.8
20260510081539 0 0.0 0.0 0.00 0.00 0.00 1029.6
20260510081534 58 222 0.0 1.0 0.00 0.01 0.01 77 1028.9
20260510080039 60 252 1.0 3.0 0.00 0.01 0.01 75 1028.8
20260510080029 0 0.0 0.0 0.00 0.00 0.00 1029.5
20260510074533 62 147 0.0 0.0 0.00 0.01 0.01 72 1028.6
20260510073035 0 0.0 0.0 0.00 0.00 0.00 1029.2
20260510073033 64 147 0.0 2.0 0.00 0.01 0.01 70 1028.5
20260510071533 64 138 0.0 2.0 0.00 0.01 0.01 70 1028.4
20260510071530 0 0.0 0.0 0.00 0.00 0.00 1029.2
20260510070032 64 188 1.0 5.0 0.00 0.01 0.01 70 1028.3
20260510070030 0 0.0 0.0 0.00 0.00 0.00 1029.2
20260510064537 0 0.0 0.0 0.00 0.00 0.00 1029.2
20260510064533 64 194 1.0 6.0 0.00 0.01 0.01 71 1028.3
20260510063037 0 0.0 0.0 0.00 0.00 0.00 1029.1
20260510063030 64 194 3.0 7.0 0.00 0.01 0.01 70 1028.3
20260510061530 64 148 1.0 6.0 0.00 0.01 0.01 70 1028.4
20260510060028 0 0.0 0.0 0.00 0.00 0.00 1029.2
20260510054531 0 0.0 0.0 0.00 0.00 0.00 1029.2
20260510054526 63 159 2.0 7.0 0.00 0.01 0.01 72 1028.5
20260510053035 0 0.0 0.0 0.00 0.00 0.00 1029.1
20260510053024 63 188 4.0 7.0 0.00 0.01 0.01 73 1028.5
20260510051534 0 0.0 0.0 0.00 0.00 0.00 1029.3
20260510051523 63 181 3.0 8.0 0.00 0.01 0.01 75 1028.5
20260510050029 0 0.0 0.0 0.00 0.00 0.00 1029.3
20260510050020 62 146 3.0 7.0 0.00 0.01 0.01 76 1028.6
20260510044543 0 0.0 0.0 0.00 0.00 0.00 1029.2
20260510044516 62 211 2.0 5.0 0.00 0.01 0.01 77 1028.6
20260510043030 0 0.0 0.0 0.00 0.00 0.00 1029.3
20260510043020 61 189 3.0 4.0 0.00 0.01 0.01 78 1028.6
20260510041530 0 0.0 0.0 0.00 0.00 0.00 1029.4
20260510041511 61 190 3.0 6.0 0.00 0.01 0.01 80 1028.7
20260510040032 0 0.0 0.0 0.00 0.00 0.00 1029.4
20260510040010 60 159 3.0 7.0 0.00 0.01 0.01 82 1028.8
20260510034535 0 0.0 0.0 0.00 0.00 0.00 1029.5
20260510034503 59 236 3.0 7.0 0.00 0.01 0.01 87 1028.9
20260510033101 57 131 3.0 6.0 0.00 0.01 0.01 91 1029.0
20260510033032 0 0.0 0.0 0.00 0.00 0.00 1029.5
20260510031558 56 199 3.0 6.0 0.00 0.01 0.01 95 1029.3
20260510031534 0 0.0 0.0 0.00 0.00 0.00 1029.7
20260510030053 55 202 3.0 7.0 0.00 0.01 0.01 96 1029.4
20260510030029 0 0.0 0.0 0.00 0.00 0.00 1029.8
20260510024552 54 218 3.0 7.0 0.00 0.01 0.01 96 1029.6
20260510024530 0 0.0 0.0 0.00 0.00 0.00 1030.0
20260510023051 53 213 2.0 5.0 0.00 0.01 0.01 96 1029.9
20260510023032 0 0.0 0.0 0.00 0.00 0.00 1030.4
20260510021547 53 174 1.0 4.0 0.00 0.01 0.01 97 1030.1
20260510021536 0 0.0 0.0 0.00 0.00 0.00 1030.7
20260510020044 52 180 2.0 5.0 0.00 0.01 0.01 96 1030.3
20260510020033 0 0.0 0.0 0.00 0.00 0.00 1030.8
20260510014545 52 175 2.0 5.0 0.00 0.01 0.01 96 1030.5
20260510014529 0 0.0 0.0 0.00 0.00 0.00 1031.0
20260510013040 51 211 1.0 4.0 0.00 0.01 0.01 96 1030.6
20260510013033 0 0.0 0.0 0.00 0.00 0.00 1031.2
20260510011539 51 130 2.0 3.0 0.00 0.01 0.01 96 1030.8
20260510011531 0 0.0 0.0 0.00 0.00 0.00 1031.2
20260510010035 50 144 1.0 3.0 0.00 0.01 0.01 96 1030.8
20260510010032 0 0.0 0.0 0.00 0.00 0.00 1031.3
20260510004533 50 196 1.0 4.0 0.00 0.01 0.01 96 1030.8
20260510004529 0 0.0 0.0 0.00 0.00 0.00 1031.2
20260510003031 0 0.0 0.0 0.00 0.00 0.00 1031.1
20260510001529 49 172 1.0 4.0 0.00 0.01 0.01 96 1030.7
20260510000029 0 0.0 0.0 0.00 0.00 0.00 1031.0
20260510000026 48 179 2.0 4.0 0.00 0.01 0.01 96 1030.5
20260509234535 0 0.0 0.0 0.00 0.00 0.00 1031.2
20260509234523 47 175 1.0 4.0 0.00 0.01 0.01 96 1030.6
20260509233030 0 0.0 0.0 0.00 0.00 0.00 1031.0
20260509233025 47 185 2.0 4.0 0.00 0.01 0.01 96 1030.6
20260509231531 0 0.0 0.0 0.00 0.00 0.00 1030.9
20260509231519 46 146 2.0 5.0 0.00 0.01 0.01 96 1030.6
20260509230032 0 0.0 0.0 0.00 0.00 0.00 1030.8
20260509230018 46 163 2.0 4.0 0.00 0.01 0.01 95 1030.4
20260509224615 46 178 1.0 6.0 0.00 0.01 0.01 95 1030.3
20260509224529 0 0.0 0.0 0.00 0.00 0.00 1030.6
20260509223034 0 0.0 0.0 0.00 0.00 0.00 1030.6
20260509223015 46 190 1.0 4.0 0.00 0.01 0.01 95 1030.2
20260509221535 0 0.0 0.0 0.00 0.00 0.00 1030.4
20260509221513 45 168 2.0 5.0 0.00 0.01 0.01 95 1030.1
20260509220032 0 0.0 0.0 0.00 0.00 0.00 1030.2
20260509220009 45 200 1.0 3.0 0.00 0.01 0.01 95 1029.8
20260509214530 0 0.0 0.0 0.00 0.00 0.00 1030.0
20260509214508 45 201 0.0 0.0 0.00 0.01 0.01 95 1029.7
20260509213030 0 0.0 0.0 0.00 0.00 0.00 1029.9
20260509213006 45 187 0.0 0.0 0.00 0.01 0.01 95 1029.5
20260509211529 0 0.0 0.0 0.00 0.00 0.00 1029.8
20260509211504 45 187 0.0 4.0 0.00 0.01 0.01 95 1029.4
20260509210032 0 0.0 0.0 0.00 0.00 0.00 1029.7
20260509210004 45 197 1.0 3.0 0.01 0.01 0.01 95 1029.3
20260509204531 0 0.0 0.0 0.00 0.00 0.00 1029.6
20260509204502 45 153 1.0 2.0 0.01 0.01 0.01 95 1029.2
20260509203141 45 177 1.0 3.0 0.01 0.01 0.01 95 1029.0
20260509203030 0 0.0 0.0 0.00 0.00 0.00 1029.4
20260509201619 45 168 1.0 2.0 0.01 0.01 0.01 95 1028.9
20260509201539 0 0.0 0.0 0.00 0.00 0.00 1029.3
20260509200107 45 176 0.0 3.0 0.00 0.00 0.00 95 1028.8
20260509200030 0 0.0 0.0 0.00 0.00 0.00 1029.3
20260509194554 45 181 1.0 4.0 0.00 0.00 0.00 94 1028.5
20260509194532 0 0.0 0.0 0.00 0.00 0.00 1029.1
20260509193109 45 197 2.0 5.0 0.00 0.00 0.00 94 1028.4
20260509193032 0 0.0 0.0 0.00 0.00 0.00 1029.1
20260509191558 45 177 1.0 3.0 0.00 0.00 0.00 94 1028.2
20260509191530 0 0.0 0.0 0.00 0.00 0.00 1028.8
20260509190049 46 198 1.0 3.0 0.00 0.00 0.00 94 1028.2
20260509190030 0 0.0 0.0 0.00 0.00 0.00 1028.8
20260509184549 46 198 2.0 5.0 0.00 0.00 0.00 94 1028.2
20260509184533 0 0.0 0.0 0.00 0.00 0.00 1028.6
20260509183049 46 216 1.0 3.0 0.00 0.00 0.00 94 1028.2
20260509183030 0 0.0 0.0 0.00 0.00 0.00 1028.7
20260509181545 46 215 1.0 4.0 0.00 0.00 0.00 95 1028.1
20260509181530 0 0.0 0.0 0.00 0.00 0.00 1028.5
20260509180045 45 221 1.0 2.0 0.00 0.00 0.00 95 1028.1
20260509180030 0 0.0 0.0 0.00 0.00 0.00 1028.5
20260509174544 45 196 0.0 2.0 0.00 0.01 0.00 94 1028.0
20260509174531 0 0.0 0.0 0.00 0.00 0.00 1028.5
20260509173043 44 196 0.0 1.0 0.00 0.01 0.00 94 1028.0
20260509173032 0 0.0 0.0 0.00 0.00 0.00 1028.5
20260509171542 44 196 0.0 1.0 0.00 0.01 0.00 94 1028.0
20260509171537 0 0.0 0.0 0.00 0.00 0.00 1028.5
20260509170042 44 196 0.0 0.0 0.00 0.01 0.00 93 1028.0
20260509170033 0 0.0 0.0 0.00 0.00 0.00 1028.6
20260509164542 44 196 0.0 1.0 0.00 0.01 0.00 93 1028.0
20260509164531 0 0.0 0.0 0.00 0.00 0.00 1028.5
20260509163039 45 196 0.0 1.0 0.00 0.01 0.00 93 1027.9
20260509163034 0 0.0 0.0 0.00 0.00 0.00 1028.4
20260509161538 45 176 0.0 2.0 0.00 0.01 0.00 94 1027.8
20260509161536 0 0.0 0.0 0.00 0.00 0.00 1028.4
20260509160038 45 165 0.0 2.0 0.00 0.01 0.00 93 1027.9
20260509160030 0 0.0 0.0 0.00 0.00 0.00 1028.4
20260509154536 44 187 0.0 0.0 0.00 0.01 0.00 93 1027.9
20260509154532 0 0.0 0.0 0.00 0.00 0.00 1028.4
20260509153034 44 233 0.0 1.0 0.00 0.01 0.00 93 1028.0
20260509153029 0 0.0 0.0 0.00 0.00 0.00 1028.5
20260509151533 44 204 0.0 1.0 0.00 0.01 0.00 92 1028.0
20260509151529 0 0.0 0.0 0.00 0.00 0.00 1028.6
20260509150036 0 0.0 0.0 0.00 0.00 0.00 1028.7
20260509150033 44 204 0.0 2.0 0.00 0.01 0.00 92 1028.0
20260509144534 45 294 0.0 1.0 0.00 0.01 0.00 92 1028.1
20260509143035 0 0.0 0.0 0.00 0.00 0.00 1028.8
20260509143026 45 294 1.0 2.0 0.00 0.01 0.00 92 1028.1
20260509141534 0 0.0 0.0 0.00 0.00 0.00 1028.8
20260509141523 46 294 0.0 1.0 0.00 0.01 0.00 92 1028.0
20260509140032 0 0.0 0.0 0.00 0.00 0.00 1028.8
20260509140020 47 294 0.0 2.0 0.00 0.01 0.00 92 1028.1
20260509134530 0 0.0 0.0 0.00 0.00 0.00 1028.8
20260509134520 47 294 0.0 2.0 0.00 0.01 0.01 92 1028.1
20260509133029 0 0.0 0.0 0.00 0.00 0.00 1028.8
20260509133018 47 301 1.0 2.0 0.00 0.01 0.01 91 1028.2